sensor_id;sensor_type;location;lat;lon;timestamp;P1;P2;P0
74419;PMS5003;62855;50.718;-2.460;2023-08-20T00:01:06;2.72;2.93;
74419;PMS5003;62855;50.718;-2.460;2023-08-20T00:04:06;3.63;3.91;
74419;PMS5003;62855;50.718;-2.460;2023-08-20T00:07:06;2.72;1.96;
74419;PMS5003;62855;50.718;-2.460;2023-08-20T00:10:06;3.63;2.93;
74419;PMS5003;62855;50.718;-2.460;2023-08-20T00:13:06;3.63;1.96;
74419;PMS5003;62855;50.718;-2.460;2023-08-20T00:16:06;3.63;1.96;
74419;PMS5003;62855;50.718;-2.460;2023-08-20T00:19:06;3.63;1.96;
74419;PMS5003;62855;50.718;-2.460;2023-08-20T00:22:06;3.63;1.96;
74419;PMS5003;62855;50.718;-2.460;2023-08-20T00:25:06;6.35;2.93;
74419;PMS5003;62855;50.718;-2.460;2023-08-20T00:28:06;5.45;1.96;
74419;PMS5003;62855;50.718;-2.460;2023-08-20T00:31:06;6.35;3.91;
74419;PMS5003;62855;50.718;-2.460;2023-08-20T00:34:06;5.45;1.96;
74419;PMS5003;62855;50.718;-2.460;2023-08-20T00:37:06;5.45;1.96;
74419;PMS5003;62855;50.718;-2.460;2023-08-20T00:40:06;5.45;2.93;
74419;PMS5003;62855;50.718;-2.460;2023-08-20T00:43:06;6.35;2.93;
74419;PMS5003;62855;50.718;-2.460;2023-08-20T00:46:06;5.45;1.96;
74419;PMS5003;62855;50.718;-2.460;2023-08-20T00:49:06;6.35;2.93;
74419;PMS5003;62855;50.718;-2.460;2023-08-20T00:52:06;5.45;1.96;
74419;PMS5003;62855;50.718;-2.460;2023-08-20T00:55:07;2.72;1.96;
74419;PMS5003;62855;50.718;-2.460;2023-08-20T00:58:06;2.72;1.96;
74419;PMS5003;62855;50.718;-2.460;2023-08-20T01:01:06;2.72;1.96;
74419;PMS5003;62855;50.718;-2.460;2023-08-20T01:04:06;2.72;1.96;
74419;PMS5003;62855;50.718;-2.460;2023-08-20T01:07:08;2.72;1.96;
74419;PMS5003;62855;50.718;-2.460;2023-08-20T01:10:08;3.63;2.93;
74419;PMS5003;62855;50.718;-2.460;2023-08-20T01:13:06;2.72;0.98;
74419;PMS5003;62855;50.718;-2.460;2023-08-20T01:16:06;3.63;2.93;
74419;PMS5003;62855;50.718;-2.460;2023-08-20T01:19:06;2.72;1.96;
74419;PMS5003;62855;50.718;-2.460;2023-08-20T01:23:12;3.63;2.93;
74419;PMS5003;62855;50.718;-2.460;2023-08-20T01:26:07;1.82;0.98;
74419;PMS5003;62855;50.718;-2.460;2023-08-20T01:29:06;3.63;2.93;
74419;PMS5003;62855;50.718;-2.460;2023-08-20T01:32:06;3.63;2.93;
74419;PMS5003;62855;50.718;-2.460;2023-08-20T01:35:07;3.63;2.93;
74419;PMS5003;62855;50.718;-2.460;2023-08-20T01:38:06;2.72;1.96;
74419;PMS5003;62855;50.718;-2.460;2023-08-20T01:41:06;2.72;1.96;
74419;PMS5003;62855;50.718;-2.460;2023-08-20T01:44:06;1.82;1.96;
74419;PMS5003;62855;50.718;-2.460;2023-08-20T01:47:06;1.82;1.96;
74419;PMS5003;62855;50.718;-2.460;2023-08-20T01:50:06;1.82;1.96;
74419;PMS5003;62855;50.718;-2.460;2023-08-20T01:53:06;2.72;1.96;
74419;PMS5003;62855;50.718;-2.460;2023-08-20T01:56:10;2.72;1.96;
74419;PMS5003;62855;50.718;-2.460;2023-08-20T01:59:05;2.72;1.96;
74419;PMS5003;62855;50.718;-2.460;2023-08-20T02:02:05;2.72;1.96;
74419;PMS5003;62855;50.718;-2.460;2023-08-20T02:05:06;2.72;1.96;
74419;PMS5003;62855;50.718;-2.460;2023-08-20T02:08:06;2.72;1.96;
74419;PMS5003;62855;50.718;-2.460;2023-08-20T02:11:06;3.63;2.93;
74419;PMS5003;62855;50.718;-2.460;2023-08-20T02:14:06;4.54;2.93;
74419;PMS5003;62855;50.718;-2.460;2023-08-20T02:17:06;4.54;2.93;
74419;PMS5003;62855;50.718;-2.460;2023-08-20T02:20:06;4.54;3.91;
74419;PMS5003;62855;50.718;-2.460;2023-08-20T02:23:06;2.72;2.93;
74419;PMS5003;62855;50.718;-2.460;2023-08-20T02:26:06;3.63;3.91;
74419;PMS5003;62855;50.718;-2.460;2023-08-20T02:29:06;3.63;3.91;
74419;PMS5003;62855;50.718;-2.460;2023-08-20T02:32:06;3.63;2.93;
74419;PMS5003;62855;50.718;-2.460;2023-08-20T02:35:06;3.63;2.93;
74419;PMS5003;62855;50.718;-2.460;2023-08-20T02:38:06;3.63;2.93;
74419;PMS5003;62855;50.718;-2.460;2023-08-20T02:41:07;3.63;2.93;
74419;PMS5003;62855;50.718;-2.460;2023-08-20T02:44:06;2.72;2.93;
74419;PMS5003;62855;50.718;-2.460;2023-08-20T02:47:17;2.72;2.93;
74419;PMS5003;62855;50.718;-2.460;2023-08-20T02:50:06;2.72;1.96;
74419;PMS5003;62855;50.718;-2.460;2023-08-20T02:53:06;2.72;1.96;
74419;PMS5003;62855;50.718;-2.460;2023-08-20T02:56:06;1.82;1.96;
74419;PMS5003;62855;50.718;-2.460;2023-08-20T02:59:06;2.72;1.96;
74419;PMS5003;62855;50.718;-2.460;2023-08-20T03:02:06;2.72;1.96;
74419;PMS5003;62855;50.718;-2.460;2023-08-20T03:05:06;2.72;1.96;
74419;PMS5003;62855;50.718;-2.460;2023-08-20T03:08:06;2.72;1.96;
74419;PMS5003;62855;50.718;-2.460;2023-08-20T03:11:06;2.72;1.96;
74419;PMS5003;62855;50.718;-2.460;2023-08-20T03:14:05;2.72;1.96;
74419;PMS5003;62855;50.718;-2.460;2023-08-20T03:17:05;2.72;2.93;
74419;PMS5003;62855;50.718;-2.460;2023-08-20T03:20:06;2.72;2.93;
74419;PMS5003;62855;50.718;-2.460;2023-08-20T03:23:06;2.72;2.93;
74419;PMS5003;62855;50.718;-2.460;2023-08-20T03:26:05;1.82;1.96;
74419;PMS5003;62855;50.718;-2.460;2023-08-20T03:29:05;1.82;1.96;
74419;PMS5003;62855;50.718;-2.460;2023-08-20T03:32:05;1.82;1.96;
74419;PMS5003;62855;50.718;-2.460;2023-08-20T03:35:06;1.82;1.96;
74419;PMS5003;62855;50.718;-2.460;2023-08-20T03:38:06;1.82;0.98;
74419;PMS5003;62855;50.718;-2.460;2023-08-20T03:41:06;1.82;0.98;
74419;PMS5003;62855;50.718;-2.460;2023-08-20T03:44:06;1.82;0.98;
74419;PMS5003;62855;50.718;-2.460;2023-08-20T03:47:06;0.91;0;
74419;PMS5003;62855;50.718;-2.460;2023-08-20T03:50:06;0;0;
74419;PMS5003;62855;50.718;-2.460;2023-08-20T03:53:05;1.82;0.98;
74419;PMS5003;62855;50.718;-2.460;2023-08-20T03:56:05;2.72;1.96;
74419;PMS5003;62855;50.718;-2.460;2023-08-20T03:59:06;1.82;1.96;
74419;PMS5003;62855;50.718;-2.460;2023-08-20T04:02:06;2.72;2.93;
74419;PMS5003;62855;50.718;-2.460;2023-08-20T04:05:06;2.72;2.93;
74419;PMS5003;62855;50.718;-2.460;2023-08-20T04:08:05;3.63;2.93;
74419;PMS5003;62855;50.718;-2.460;2023-08-20T04:11:06;2.72;2.93;
74419;PMS5003;62855;50.718;-2.460;2023-08-20T04:14:05;2.72;1.96;
74419;PMS5003;62855;50.718;-2.460;2023-08-20T04:17:05;2.72;2.93;
74419;PMS5003;62855;50.718;-2.460;2023-08-20T04:20:06;3.63;2.93;
74419;PMS5003;62855;50.718;-2.460;2023-08-20T04:23:05;2.72;1.96;
74419;PMS5003;62855;50.718;-2.460;2023-08-20T04:26:06;1.82;1.96;
74419;PMS5003;62855;50.718;-2.460;2023-08-20T04:29:05;2.72;1.96;
74419;PMS5003;62855;50.718;-2.460;2023-08-20T04:32:06;1.82;1.96;
74419;PMS5003;62855;50.718;-2.460;2023-08-20T04:35:06;1.82;1.96;
74419;PMS5003;62855;50.718;-2.460;2023-08-20T04:38:06;1.82;1.96;
74419;PMS5003;62855;50.718;-2.460;2023-08-20T04:41:06;2.72;1.96;
74419;PMS5003;62855;50.718;-2.460;2023-08-20T04:44:06;2.72;1.96;
74419;PMS5003;62855;50.718;-2.460;2023-08-20T04:47:06;2.72;1.96;
74419;PMS5003;62855;50.718;-2.460;2023-08-20T04:50:06;2.72;1.96;
74419;PMS5003;62855;50.718;-2.460;2023-08-20T04:53:06;3.63;2.93;
74419;PMS5003;62855;50.718;-2.460;2023-08-20T04:56:06;3.63;2.93;
74419;PMS5003;62855;50.718;-2.460;2023-08-20T04:59:05;2.72;1.96;
74419;PMS5003;62855;50.718;-2.460;2023-08-20T05:02:06;3.63;1.96;
74419;PMS5003;62855;50.718;-2.460;2023-08-20T05:05:06;2.72;1.96;
74419;PMS5003;62855;50.718;-2.460;2023-08-20T05:08:06;2.72;1.96;
74419;PMS5003;62855;50.718;-2.460;2023-08-20T05:11:06;2.72;0.98;
74419;PMS5003;62855;50.718;-2.460;2023-08-20T05:14:06;1.82;0.98;
74419;PMS5003;62855;50.718;-2.460;2023-08-20T05:17:06;3.63;2.93;
74419;PMS5003;62855;50.718;-2.460;2023-08-20T05:20:06;3.63;2.93;
74419;PMS5003;62855;50.718;-2.460;2023-08-20T05:23:05;3.63;2.93;
74419;PMS5003;62855;50.718;-2.460;2023-08-20T05:26:06;3.63;2.93;
74419;PMS5003;62855;50.718;-2.460;2023-08-20T05:29:06;2.72;1.96;
74419;PMS5003;62855;50.718;-2.460;2023-08-20T05:32:06;4.54;3.91;
74419;PMS5003;62855;50.718;-2.460;2023-08-20T05:35:06;5.45;3.91;
74419;PMS5003;62855;50.718;-2.460;2023-08-20T05:38:06;4.54;3.91;
74419;PMS5003;62855;50.718;-2.460;2023-08-20T05:41:05;4.54;3.91;
74419;PMS5003;62855;50.718;-2.460;2023-08-20T05:44:06;4.54;3.91;
74419;PMS5003;62855;50.718;-2.460;2023-08-20T05:47:06;4.54;3.91;
74419;PMS5003;62855;50.718;-2.460;2023-08-20T05:50:06;3.63;2.93;
74419;PMS5003;62855;50.718;-2.460;2023-08-20T05:53:06;3.63;2.93;
74419;PMS5003;62855;50.718;-2.460;2023-08-20T05:56:06;2.72;2.93;
74419;PMS5003;62855;50.718;-2.460;2023-08-20T05:59:06;3.63;2.93;
74419;PMS5003;62855;50.718;-2.460;2023-08-20T06:02:06;1.82;1.96;
74419;PMS5003;62855;50.718;-2.460;2023-08-20T06:05:06;1.82;1.96;
74419;PMS5003;62855;50.718;-2.460;2023-08-20T06:08:06;1.82;1.96;
74419;PMS5003;62855;50.718;-2.460;2023-08-20T06:11:06;1.82;1.96;
74419;PMS5003;62855;50.718;-2.460;2023-08-20T06:14:06;1.82;1.96;
74419;PMS5003;62855;50.718;-2.460;2023-08-20T06:17:06;1.82;1.96;
74419;PMS5003;62855;50.718;-2.460;2023-08-20T06:20:06;0.91;0.98;
74419;PMS5003;62855;50.718;-2.460;2023-08-20T06:23:05;1.82;1.96;
74419;PMS5003;62855;50.718;-2.460;2023-08-20T06:26:06;1.82;1.96;
74419;PMS5003;62855;50.718;-2.460;2023-08-20T06:29:06;2.72;2.93;
74419;PMS5003;62855;50.718;-2.460;2023-08-20T06:32:06;1.82;1.96;
74419;PMS5003;62855;50.718;-2.460;2023-08-20T06:35:06;1.82;1.96;
74419;PMS5003;62855;50.718;-2.460;2023-08-20T06:38:06;2.72;2.93;
74419;PMS5003;62855;50.718;-2.460;2023-08-20T06:41:06;2.72;2.93;
74419;PMS5003;62855;50.718;-2.460;2023-08-20T06:44:06;1.82;1.96;
74419;PMS5003;62855;50.718;-2.460;2023-08-20T06:47:06;1.82;1.96;
74419;PMS5003;62855;50.718;-2.460;2023-08-20T06:50:06;2.72;2.93;
74419;PMS5003;62855;50.718;-2.460;2023-08-20T06:53:06;2.72;2.93;
74419;PMS5003;62855;50.718;-2.460;2023-08-20T06:56:06;2.72;2.93;
74419;PMS5003;62855;50.718;-2.460;2023-08-20T06:59:06;1.82;1.96;
74419;PMS5003;62855;50.718;-2.460;2023-08-20T07:02:05;2.72;1.96;
74419;PMS5003;62855;50.718;-2.460;2023-08-20T07:05:06;3.63;2.93;
74419;PMS5003;62855;50.718;-2.460;2023-08-20T07:08:06;3.63;1.96;
74419;PMS5003;62855;50.718;-2.460;2023-08-20T07:11:06;2.72;1.96;
74419;PMS5003;62855;50.718;-2.460;2023-08-20T07:14:05;3.63;1.96;
74419;PMS5003;62855;50.718;-2.460;2023-08-20T07:17:05;3.63;1.96;
74419;PMS5003;62855;50.718;-2.460;2023-08-20T07:20:06;4.54;1.96;
74419;PMS5003;62855;50.718;-2.460;2023-08-20T07:23:05;3.63;1.96;
74419;PMS5003;62855;50.718;-2.460;2023-08-20T07:26:06;3.63;1.96;
74419;PMS5003;62855;50.718;-2.460;2023-08-20T07:29:06;4.54;1.96;
74419;PMS5003;62855;50.718;-2.460;2023-08-20T07:32:06;3.63;1.96;
74419;PMS5003;62855;50.718;-2.460;2023-08-20T07:35:06;5.45;1.96;
74419;PMS5003;62855;50.718;-2.460;2023-08-20T07:38:06;5.45;2.93;
74419;PMS5003;62855;50.718;-2.460;2023-08-20T07:41:06;5.45;2.93;
74419;PMS5003;62855;50.718;-2.460;2023-08-20T07:44:06;5.45;2.93;
74419;PMS5003;62855;50.718;-2.460;2023-08-20T07:47:06;7.26;2.93;
74419;PMS5003;62855;50.718;-2.460;2023-08-20T07:50:06;6.35;2.93;
74419;PMS5003;62855;50.718;-2.460;2023-08-20T07:53:06;6.35;2.93;
74419;PMS5003;62855;50.718;-2.460;2023-08-20T07:56:06;6.35;2.93;
74419;PMS5003;62855;50.718;-2.460;2023-08-20T07:59:06;6.35;2.93;
74419;PMS5003;62855;50.718;-2.460;2023-08-20T08:02:06;6.35;2.93;
74419;PMS5003;62855;50.718;-2.460;2023-08-20T08:06:05;3.63;1.96;
74419;PMS5003;62855;50.718;-2.460;2023-08-20T08:09:17;4.54;1.96;
74419;PMS5003;62855;50.718;-2.460;2023-08-20T08:12:06;3.63;1.96;
74419;PMS5003;62855;50.718;-2.460;2023-08-20T08:15:06;4.54;1.96;
74419;PMS5003;62855;50.718;-2.460;2023-08-20T08:18:06;2.72;1.96;
74419;PMS5003;62855;50.718;-2.460;2023-08-20T08:21:05;2.72;1.96;
74419;PMS5003;62855;50.718;-2.460;2023-08-20T08:24:05;2.72;1.96;
74419;PMS5003;62855;50.718;-2.460;2023-08-20T08:27:05;1.82;0.98;
74419;PMS5003;62855;50.718;-2.460;2023-08-20T08:30:07;2.72;1.96;
74419;PMS5003;62855;50.718;-2.460;2023-08-20T08:33:06;2.72;1.96;
74419;PMS5003;62855;50.718;-2.460;2023-08-20T08:36:06;2.72;0.98;
74419;PMS5003;62855;50.718;-2.460;2023-08-20T08:39:06;1.82;0.98;
74419;PMS5003;62855;50.718;-2.460;2023-08-20T08:42:06;2.72;1.96;
74419;PMS5003;62855;50.718;-2.460;2023-08-20T08:45:06;2.72;1.96;
74419;PMS5003;62855;50.718;-2.460;2023-08-20T08:48:05;2.72;1.96;
74419;PMS5003;62855;50.718;-2.460;2023-08-20T08:51:06;2.72;1.96;
74419;PMS5003;62855;50.718;-2.460;2023-08-20T08:54:05;2.72;1.96;
74419;PMS5003;62855;50.718;-2.460;2023-08-20T08:57:06;3.63;2.93;
74419;PMS5003;62855;50.718;-2.460;2023-08-20T09:00:06;2.72;2.93;
74419;PMS5003;62855;50.718;-2.460;2023-08-20T09:03:06;2.72;2.93;
74419;PMS5003;62855;50.718;-2.460;2023-08-20T09:06:08;2.72;2.93;
74419;PMS5003;62855;50.718;-2.460;2023-08-20T09:09:06;2.72;2.93;
74419;PMS5003;62855;50.718;-2.460;2023-08-20T09:15:09;1.82;1.96;
74419;PMS5003;62855;50.718;-2.460;2023-08-20T09:18:08;2.72;1.96;
74419;PMS5003;62855;50.718;-2.460;2023-08-20T09:21:06;2.72;2.93;
74419;PMS5003;62855;50.718;-2.460;2023-08-20T09:24:06;2.72;2.93;
74419;PMS5003;62855;50.718;-2.460;2023-08-20T09:27:06;1.82;1.96;
74419;PMS5003;62855;50.718;-2.460;2023-08-20T09:30:06;1.82;1.96;
74419;PMS5003;62855;50.718;-2.460;2023-08-20T09:33:07;1.82;1.96;
74419;PMS5003;62855;50.718;-2.460;2023-08-20T09:36:07;1.82;1.96;
74419;PMS5003;62855;50.718;-2.460;2023-08-20T09:39:05;1.82;1.96;
74419;PMS5003;62855;50.718;-2.460;2023-08-20T09:42:06;1.82;1.96;
74419;PMS5003;62855;50.718;-2.460;2023-08-20T09:45:06;2.72;2.93;
74419;PMS5003;62855;50.718;-2.460;2023-08-20T09:48:06;2.72;2.93;
74419;PMS5003;62855;50.718;-2.460;2023-08-20T09:51:10;2.72;1.96;
74419;PMS5003;62855;50.718;-2.460;2023-08-20T09:54:07;2.72;1.96;
74419;PMS5003;62855;50.718;-2.460;2023-08-20T09:57:07;2.72;1.96;
74419;PMS5003;62855;50.718;-2.460;2023-08-20T10:00:07;2.72;1.96;
74419;PMS5003;62855;50.718;-2.460;2023-08-20T10:03:05;1.82;0.98;
74419;PMS5003;62855;50.718;-2.460;2023-08-20T10:06:05;1.82;0.98;
74419;PMS5003;62855;50.718;-2.460;2023-08-20T10:09:06;1.82;0.98;
74419;PMS5003;62855;50.718;-2.460;2023-08-20T10:12:06;1.82;0.98;
74419;PMS5003;62855;50.718;-2.460;2023-08-20T10:15:07;1.82;0.98;
74419;PMS5003;62855;50.718;-2.460;2023-08-20T10:18:07;1.82;1.96;
74419;PMS5003;62855;50.718;-2.460;2023-08-20T10:21:05;0;0;
74419;PMS5003;62855;50.718;-2.460;2023-08-20T10:24:06;1.82;1.96;
74419;PMS5003;62855;50.718;-2.460;2023-08-20T10:27:07;1.82;1.96;
74419;PMS5003;62855;50.718;-2.460;2023-08-20T10:30:08;1.82;1.96;
74419;PMS5003;62855;50.718;-2.460;2023-08-20T10:33:07;2.72;1.96;
74419;PMS5003;62855;50.718;-2.460;2023-08-20T10:36:07;2.72;2.93;
74419;PMS5003;62855;50.718;-2.460;2023-08-20T10:39:06;3.63;2.93;
74419;PMS5003;62855;50.718;-2.460;2023-08-20T10:42:11;3.63;2.93;
74419;PMS5003;62855;50.718;-2.460;2023-08-20T10:45:06;3.63;1.96;
74419;PMS5003;62855;50.718;-2.460;2023-08-20T10:48:05;3.63;1.96;
74419;PMS5003;62855;50.718;-2.460;2023-08-20T10:51:08;3.63;0.98;
74419;PMS5003;62855;50.718;-2.460;2023-08-20T10:54:07;4.54;2.93;
74419;PMS5003;62855;50.718;-2.460;2023-08-20T10:57:06;4.54;2.93;
74419;PMS5003;62855;50.718;-2.460;2023-08-20T11:00:06;4.54;2.93;
74419;PMS5003;62855;50.718;-2.460;2023-08-20T11:03:06;3.63;1.96;
74419;PMS5003;62855;50.718;-2.460;2023-08-20T11:06:06;2.72;1.96;
74419;PMS5003;62855;50.718;-2.460;2023-08-20T11:09:06;1.82;0.98;
74419;PMS5003;62855;50.718;-2.460;2023-08-20T11:12:06;1.82;0.98;
74419;PMS5003;62855;50.718;-2.460;2023-08-20T11:15:06;1.82;0.98;
74419;PMS5003;62855;50.718;-2.460;2023-08-20T11:18:06;1.82;1.96;
74419;PMS5003;62855;50.718;-2.460;2023-08-20T11:21:06;0.91;0.98;
74419;PMS5003;62855;50.718;-2.460;2023-08-20T11:24:06;0.91;0.98;
74419;PMS5003;62855;50.718;-2.460;2023-08-20T11:27:06;0.91;0.98;
74419;PMS5003;62855;50.718;-2.460;2023-08-20T11:30:06;1.82;1.96;
74419;PMS5003;62855;50.718;-2.460;2023-08-20T11:33:06;1.82;1.96;
74419;PMS5003;62855;50.718;-2.460;2023-08-20T11:36:06;1.82;1.96;
74419;PMS5003;62855;50.718;-2.460;2023-08-20T11:39:06;2.72;2.93;
74419;PMS5003;62855;50.718;-2.460;2023-08-20T11:42:05;2.72;2.93;
74419;PMS5003;62855;50.718;-2.460;2023-08-20T11:45:06;3.63;3.91;
74419;PMS5003;62855;50.718;-2.460;2023-08-20T11:48:08;2.72;2.93;
74419;PMS5003;62855;50.718;-2.460;2023-08-20T11:51:06;3.63;3.91;
74419;PMS5003;62855;50.718;-2.460;2023-08-20T11:54:07;3.63;3.91;
74419;PMS5003;62855;50.718;-2.460;2023-08-20T11:57:06;3.63;3.91;
74419;PMS5003;62855;50.718;-2.460;2023-08-20T12:00:06;4.54;3.91;
74419;PMS5003;62855;50.718;-2.460;2023-08-20T12:03:07;4.54;3.91;
74419;PMS5003;62855;50.718;-2.460;2023-08-20T12:12:06;4.54;3.91;
74419;PMS5003;62855;50.718;-2.460;2023-08-20T12:15:06;4.54;3.91;
74419;PMS5003;62855;50.718;-2.460;2023-08-20T12:18:06;3.63;2.93;
74419;PMS5003;62855;50.718;-2.460;2023-08-20T12:21:05;3.63;2.93;
74419;PMS5003;62855;50.718;-2.460;2023-08-20T12:24:07;3.63;2.93;
74419;PMS5003;62855;50.718;-2.460;2023-08-20T12:27:06;3.63;2.93;
74419;PMS5003;62855;50.718;-2.460;2023-08-20T12:30:07;3.63;2.93;
74419;PMS5003;62855;50.718;-2.460;2023-08-20T12:33:05;2.72;2.93;
74419;PMS5003;62855;50.718;-2.460;2023-08-20T12:36:06;2.72;2.93;
74419;PMS5003;62855;50.718;-2.460;2023-08-20T12:39:06;3.63;2.93;
74419;PMS5003;62855;50.718;-2.460;2023-08-20T12:42:06;3.63;1.96;
74419;PMS5003;62855;50.718;-2.460;2023-08-20T12:45:06;3.63;2.93;
74419;PMS5003;62855;50.718;-2.460;2023-08-20T12:48:06;3.63;2.93;
74419;PMS5003;62855;50.718;-2.460;2023-08-20T12:51:06;3.63;2.93;
74419;PMS5003;62855;50.718;-2.460;2023-08-20T12:54:06;4.54;2.93;
74419;PMS5003;62855;50.718;-2.460;2023-08-20T12:57:06;4.54;2.93;
74419;PMS5003;62855;50.718;-2.460;2023-08-20T13:00:07;4.54;1.96;
74419;PMS5003;62855;50.718;-2.460;2023-08-20T13:03:06;4.54;1.96;
74419;PMS5003;62855;50.718;-2.460;2023-08-20T13:06:06;4.54;1.96;
74419;PMS5003;62855;50.718;-2.460;2023-08-20T13:09:07;4.54;1.96;
74419;PMS5003;62855;50.718;-2.460;2023-08-20T13:12:06;3.63;1.96;
74419;PMS5003;62855;50.718;-2.460;2023-08-20T13:15:06;3.63;1.96;
74419;PMS5003;62855;50.718;-2.460;2023-08-20T13:18:07;2.72;0.98;
74419;PMS5003;62855;50.718;-2.460;2023-08-20T13:21:06;3.63;1.96;
74419;PMS5003;62855;50.718;-2.460;2023-08-20T13:24:06;2.72;1.96;
74419;PMS5003;62855;50.718;-2.460;2023-08-20T13:27:06;1.82;0.98;
74419;PMS5003;62855;50.718;-2.460;2023-08-20T13:30:06;0.91;0.98;
74419;PMS5003;62855;50.718;-2.460;2023-08-20T13:33:06;0.91;0.98;
74419;PMS5003;62855;50.718;-2.460;2023-08-20T13:36:06;1.82;1.96;
74419;PMS5003;62855;50.718;-2.460;2023-08-20T13:39:06;0.91;0.98;
74419;PMS5003;62855;50.718;-2.460;2023-08-20T13:42:06;0.91;0.98;
74419;PMS5003;62855;50.718;-2.460;2023-08-20T13:45:06;0.91;0.98;
74419;PMS5003;62855;50.718;-2.460;2023-08-20T13:48:06;0;0;
74419;PMS5003;62855;50.718;-2.460;2023-08-20T13:51:06;0.91;0.98;
74419;PMS5003;62855;50.718;-2.460;2023-08-20T13:54:06;1.82;1.96;
74419;PMS5003;62855;50.718;-2.460;2023-08-20T13:57:05;0.91;0.98;
74419;PMS5003;62855;50.718;-2.460;2023-08-20T14:00:07;1.82;1.96;
74419;PMS5003;62855;50.718;-2.460;2023-08-20T14:03:06;1.82;1.96;
74419;PMS5003;62855;50.718;-2.460;2023-08-20T14:06:06;1.82;1.96;
74419;PMS5003;62855;50.718;-2.460;2023-08-20T14:09:05;1.82;1.96;
74419;PMS5003;62855;50.718;-2.460;2023-08-20T14:12:06;1.82;1.96;
74419;PMS5003;62855;50.718;-2.460;2023-08-20T14:15:06;1.82;1.96;
74419;PMS5003;62855;50.718;-2.460;2023-08-20T14:18:06;2.72;2.93;
74419;PMS5003;62855;50.718;-2.460;2023-08-20T14:21:06;3.63;3.91;
74419;PMS5003;62855;50.718;-2.460;2023-08-20T14:24:06;2.72;2.93;
74419;PMS5003;62855;50.718;-2.460;2023-08-20T14:27:06;3.63;3.91;
74419;PMS5003;62855;50.718;-2.460;2023-08-20T14:30:07;3.63;3.91;
74419;PMS5003;62855;50.718;-2.460;2023-08-20T14:33:05;2.72;2.93;
74419;PMS5003;62855;50.718;-2.460;2023-08-20T14:36:06;3.63;3.91;
74419;PMS5003;62855;50.718;-2.460;2023-08-20T14:39:06;3.63;3.91;
74419;PMS5003;62855;50.718;-2.460;2023-08-20T14:42:05;2.72;2.93;
74419;PMS5003;62855;50.718;-2.460;2023-08-20T14:45:06;3.63;3.91;
74419;PMS5003;62855;50.718;-2.460;2023-08-20T14:48:06;1.82;1.96;
74419;PMS5003;62855;50.718;-2.460;2023-08-20T14:51:05;1.82;1.96;
74419;PMS5003;62855;50.718;-2.460;2023-08-20T14:54:05;1.82;1.96;
74419;PMS5003;62855;50.718;-2.460;2023-08-20T14:57:05;0.91;0.98;
74419;PMS5003;62855;50.718;-2.460;2023-08-20T15:00:06;1.82;0.98;
74419;PMS5003;62855;50.718;-2.460;2023-08-20T15:03:05;1.82;0.98;
74419;PMS5003;62855;50.718;-2.460;2023-08-20T15:06:05;2.72;0.98;
74419;PMS5003;62855;50.718;-2.460;2023-08-20T15:09:05;2.72;1.96;
74419;PMS5003;62855;50.718;-2.460;2023-08-20T15:12:06;3.63;2.93;
74419;PMS5003;62855;50.718;-2.460;2023-08-20T15:15:06;2.72;0.98;
74419;PMS5003;62855;50.718;-2.460;2023-08-20T15:18:06;2.72;0.98;
74419;PMS5003;62855;50.718;-2.460;2023-08-20T15:21:06;3.63;1.96;
74419;PMS5003;62855;50.718;-2.460;2023-08-20T15:24:06;3.63;1.96;
74419;PMS5003;62855;50.718;-2.460;2023-08-20T15:27:06;3.63;1.96;
74419;PMS5003;62855;50.718;-2.460;2023-08-20T15:30:06;2.72;1.96;
74419;PMS5003;62855;50.718;-2.460;2023-08-20T15:33:05;3.63;2.93;
74419;PMS5003;62855;50.718;-2.460;2023-08-20T15:36:06;3.63;2.93;
74419;PMS5003;62855;50.718;-2.460;2023-08-20T15:39:06;2.72;2.93;
74419;PMS5003;62855;50.718;-2.460;2023-08-20T15:42:06;1.82;1.96;
74419;PMS5003;62855;50.718;-2.460;2023-08-20T15:45:06;4.54;2.93;
74419;PMS5003;62855;50.718;-2.460;2023-08-20T15:48:06;3.63;1.96;
74419;PMS5003;62855;50.718;-2.460;2023-08-20T15:51:05;2.72;1.96;
74419;PMS5003;62855;50.718;-2.460;2023-08-20T15:54:05;2.72;1.96;
74419;PMS5003;62855;50.718;-2.460;2023-08-20T15:57:06;3.63;2.93;
74419;PMS5003;62855;50.718;-2.460;2023-08-20T16:00:06;4.54;2.93;
74419;PMS5003;62855;50.718;-2.460;2023-08-20T16:03:05;3.63;2.93;
74419;PMS5003;62855;50.718;-2.460;2023-08-20T16:06:06;2.72;1.96;
74419;PMS5003;62855;50.718;-2.460;2023-08-20T16:09:06;2.72;1.96;
74419;PMS5003;62855;50.718;-2.460;2023-08-20T16:12:06;3.63;1.96;
74419;PMS5003;62855;50.718;-2.460;2023-08-20T16:15:06;1.82;0;
74419;PMS5003;62855;50.718;-2.460;2023-08-20T16:18:05;3.63;1.96;
74419;PMS5003;62855;50.718;-2.460;2023-08-20T16:21:05;4.54;1.96;
74419;PMS5003;62855;50.718;-2.460;2023-08-20T16:24:06;4.54;2.93;
74419;PMS5003;62855;50.718;-2.460;2023-08-20T16:27:06;5.45;2.93;
74419;PMS5003;62855;50.718;-2.460;2023-08-20T16:30:07;5.45;2.93;
74419;PMS5003;62855;50.718;-2.460;2023-08-20T16:33:06;5.45;2.93;
74419;PMS5003;62855;50.718;-2.460;2023-08-20T16:36:06;6.35;3.91;
74419;PMS5003;62855;50.718;-2.460;2023-08-20T16:39:06;6.35;3.91;
74419;PMS5003;62855;50.718;-2.460;2023-08-20T16:42:05;5.45;4.89;
74419;PMS5003;62855;50.718;-2.460;2023-08-20T16:45:06;5.45;4.89;
74419;PMS5003;62855;50.718;-2.460;2023-08-20T16:48:06;4.54;3.91;
74419;PMS5003;62855;50.718;-2.460;2023-08-20T16:51:06;3.63;3.91;
74419;PMS5003;62855;50.718;-2.460;2023-08-20T16:54:06;3.63;3.91;
74419;PMS5003;62855;50.718;-2.460;2023-08-20T16:57:05;3.63;3.91;
74419;PMS5003;62855;50.718;-2.460;2023-08-20T17:00:07;2.72;2.93;
74419;PMS5003;62855;50.718;-2.460;2023-08-20T17:03:06;1.82;1.96;
74419;PMS5003;62855;50.718;-2.460;2023-08-20T17:06:06;2.72;2.93;
74419;PMS5003;62855;50.718;-2.460;2023-08-20T17:09:05;1.82;1.96;
74419;PMS5003;62855;50.718;-2.460;2023-08-20T17:12:06;1.82;1.96;
74419;PMS5003;62855;50.718;-2.460;2023-08-20T17:15:06;0.91;0.98;
74419;PMS5003;62855;50.718;-2.460;2023-08-20T17:18:05;1.82;1.96;
74419;PMS5003;62855;50.718;-2.460;2023-08-20T17:21:06;2.72;1.96;
74419;PMS5003;62855;50.718;-2.460;2023-08-20T17:24:06;1.82;0.98;
74419;PMS5003;62855;50.718;-2.460;2023-08-20T17:27:06;3.63;1.96;
74419;PMS5003;62855;50.718;-2.460;2023-08-20T17:30:06;2.72;0.98;
74419;PMS5003;62855;50.718;-2.460;2023-08-20T17:33:05;2.72;1.96;
74419;PMS5003;62855;50.718;-2.460;2023-08-20T17:36:05;5.45;4.89;
74419;PMS5003;62855;50.718;-2.460;2023-08-20T17:39:05;5.45;3.91;
74419;PMS5003;62855;50.718;-2.460;2023-08-20T17:42:06;5.45;2.93;
74419;PMS5003;62855;50.718;-2.460;2023-08-20T17:45:06;5.45;2.93;
74419;PMS5003;62855;50.718;-2.460;2023-08-20T17:48:06;4.54;0;
74419;PMS5003;62855;50.718;-2.460;2023-08-20T17:51:06;5.45;0;
74419;PMS5003;62855;50.718;-2.460;2023-08-20T17:54:06;6.35;0.98;
74419;PMS5003;62855;50.718;-2.460;2023-08-20T17:57:06;4.54;0.98;
74419;PMS5003;62855;50.718;-2.460;2023-08-20T18:00:06;4.54;0.98;
74419;PMS5003;62855;50.718;-2.460;2023-08-20T18:03:06;4.54;0.98;
74419;PMS5003;62855;50.718;-2.460;2023-08-20T18:06:06;5.45;0.98;
74419;PMS5003;62855;50.718;-2.460;2023-08-20T18:09:06;4.54;0.98;
74419;PMS5003;62855;50.718;-2.460;2023-08-20T18:12:06;5.45;0.98;
74419;PMS5003;62855;50.718;-2.460;2023-08-20T18:15:06;6.35;1.96;
74419;PMS5003;62855;50.718;-2.460;2023-08-20T18:18:06;4.54;1.96;
74419;PMS5003;62855;50.718;-2.460;2023-08-20T18:21:06;4.54;1.96;
74419;PMS5003;62855;50.718;-2.460;2023-08-20T18:24:06;3.63;2.93;
74419;PMS5003;62855;50.718;-2.460;2023-08-20T18:27:06;4.54;2.93;
74419;PMS5003;62855;50.718;-2.460;2023-08-20T18:30:07;4.54;2.93;
74419;PMS5003;62855;50.718;-2.460;2023-08-20T18:33:06;3.63;1.96;